sensor_id;sensor_type;location;lat;lon;timestamp;pressure;altitude;pressure_sealevel;temperature;humidity
52291;BME280;39663;45.432;28.050;2023-06-22T00:07:36;101470.08;;;24.29;40.40
52291;BME280;39663;45.432;28.050;2023-06-22T00:08:07;101472.20;;;24.21;40.58
52291;BME280;39663;45.432;28.050;2023-06-22T00:08:39;101469.72;;;24.24;40.36
52291;BME280;39663;45.432;28.050;2023-06-22T00:09:11;101470.86;;;24.30;40.70
52291;BME280;39663;45.432;28.050;2023-06-22T00:09:42;101470.15;;;24.30;40.63
52291;BME280;39663;45.432;28.050;2023-06-22T00:10:14;101471.48;;;24.35;40.35
52291;BME280;39663;45.432;28.050;2023-06-22T00:10:46;101474.01;;;24.38;40.28
52291;BME280;39663;45.432;28.050;2023-06-22T00:11:17;101472.81;;;24.40;40.33
52291;BME280;39663;45.432;28.050;2023-06-22T00:11:49;101473.63;;;24.44;39.94
52291;BME280;39663;45.432;28.050;2023-06-22T00:12:20;101475.11;;;24.52;40.11
52291;BME280;39663;45.432;28.050;2023-06-22T00:12:51;101475.78;;;24.57;39.87
52291;BME280;39663;45.432;28.050;2023-06-22T00:13:23;101475.69;;;24.52;40.04
52291;BME280;39663;45.432;28.050;2023-06-22T00:13:54;101476.60;;;24.33;39.99
52291;BME280;39663;45.432;28.050;2023-06-22T00:14:26;101477.98;;;24.56;40.11
52291;BME280;39663;45.432;28.050;2023-06-22T00:14:57;101478.32;;;24.47;40.36
52291;BME280;39663;45.432;28.050;2023-06-22T00:15:29;101476.50;;;24.51;40.11
52291;BME280;39663;45.432;28.050;2023-06-22T00:16:00;101478.76;;;24.44;40.29
52291;BME280;39663;45.432;28.050;2023-06-22T00:16:32;101476.83;;;24.35;40.48
52291;BME280;39663;45.432;28.050;2023-06-22T00:17:04;101478.70;;;24.37;40.43
52291;BME280;39663;45.432;28.050;2023-06-22T00:17:35;101477.97;;;24.36;40.57
52291;BME280;39663;45.432;28.050;2023-06-22T00:18:08;101476.65;;;24.06;40.63
52291;BME280;39663;45.432;28.050;2023-06-22T00:18:40;101478.16;;;24.32;40.61
52291;BME280;39663;45.432;28.050;2023-06-22T00:19:11;101476.20;;;24.30;40.66
52291;BME280;39663;45.432;28.050;2023-06-22T00:19:43;101474.88;;;24.30;40.65
52291;BME280;39663;45.432;28.050;2023-06-22T00:20:14;101475.41;;;24.32;40.67
52291;BME280;39663;45.432;28.050;2023-06-22T00:20:46;101475.02;;;24.43;40.46
52291;BME280;39663;45.432;28.050;2023-06-22T00:21:17;101475.05;;;24.63;40.45
52291;BME280;39663;45.432;28.050;2023-06-22T00:21:49;101474.13;;;24.34;40.73
52291;BME280;39663;45.432;28.050;2023-06-22T00:22:21;101473.93;;;24.37;40.73
52291;BME280;39663;45.432;28.050;2023-06-22T00:22:53;101474.81;;;24.35;40.61
52291;BME280;39663;45.432;28.050;2023-06-22T00:23:25;101472.07;;;24.32;40.70
52291;BME280;39663;45.432;28.050;2023-06-22T00:23:56;101474.99;;;24.44;40.52
52291;BME280;39663;45.432;28.050;2023-06-22T00:24:27;101473.82;;;24.33;40.65
52291;BME280;39663;45.432;28.050;2023-06-22T00:24:59;101473.69;;;24.32;40.71
52291;BME280;39663;45.432;28.050;2023-06-22T00:25:30;101474.23;;;24.35;40.62
52291;BME280;39663;45.432;28.050;2023-06-22T00:26:02;101476.15;;;24.38;40.63
52291;BME280;39663;45.432;28.050;2023-06-22T00:26:33;101475.53;;;24.36;40.67
52291;BME280;39663;45.432;28.050;2023-06-22T00:27:05;101475.91;;;24.34;40.68
52291;BME280;39663;45.432;28.050;2023-06-22T00:27:37;101477.08;;;24.41;40.64
52291;BME280;39663;45.432;28.050;2023-06-22T00:28:08;101475.94;;;24.14;40.68
52291;BME280;39663;45.432;28.050;2023-06-22T00:28:39;101478.81;;;24.41;40.70
52291;BME280;39663;45.432;28.050;2023-06-22T00:29:11;101476.30;;;24.39;40.72
52291;BME280;39663;45.432;28.050;2023-06-22T00:29:42;101476.28;;;24.32;40.81
52291;BME280;39663;45.432;28.050;2023-06-22T00:30:14;101474.51;;;24.33;40.82
52291;BME280;39663;45.432;28.050;2023-06-22T00:30:46;101477.97;;;24.31;40.85
52291;BME280;39663;45.432;28.050;2023-06-22T00:31:18;101474.79;;;24.33;40.83
52291;BME280;39663;45.432;28.050;2023-06-22T00:31:49;101475.72;;;24.44;40.70
52291;BME280;39663;45.432;28.050;2023-06-22T00:32:20;101474.38;;;24.50;40.61
52291;BME280;39663;45.432;28.050;2023-06-22T00:32:52;101472.41;;;24.37;40.82
52291;BME280;39663;45.432;28.050;2023-06-22T00:33:23;101471.07;;;24.28;40.81
52291;BME280;39663;45.432;28.050;2023-06-22T00:33:55;101469.79;;;24.26;40.95
52291;BME280;39663;45.432;28.050;2023-06-22T00:34:26;101468.60;;;24.07;40.95
52291;BME280;39663;45.432;28.050;2023-06-22T00:34:58;101468.15;;;24.31;40.93
52291;BME280;39663;45.432;28.050;2023-06-22T00:35:29;101467.79;;;24.37;40.93
52291;BME280;39663;45.432;28.050;2023-06-22T00:36:01;101465.77;;;24.43;40.96
52291;BME280;39663;45.432;28.050;2023-06-22T00:36:32;101466.07;;;24.27;41.00
52291;BME280;39663;45.432;28.050;2023-06-22T00:37:04;101466.53;;;24.65;41.05
52291;BME280;39663;45.432;28.050;2023-06-22T00:37:35;101465.84;;;24.27;41.03
52291;BME280;39663;45.432;28.050;2023-06-22T00:38:06;101465.66;;;24.28;41.05
52291;BME280;39663;45.432;28.050;2023-06-22T00:38:38;101464.76;;;24.24;41.15
52291;BME280;39663;45.432;28.050;2023-06-22T00:39:09;101465.60;;;24.21;41.18
52291;BME280;39663;45.432;28.050;2023-06-22T00:39:42;101466.14;;;24.23;41.12
52291;BME280;39663;45.432;28.050;2023-06-22T00:40:13;101465.19;;;24.32;41.07
52291;BME280;39663;45.432;28.050;2023-06-22T00:40:45;101462.93;;;24.27;41.14
52291;BME280;39663;45.432;28.050;2023-06-22T00:41:17;101462.18;;;24.31;41.02
52291;BME280;39663;45.432;28.050;2023-06-22T00:41:48;101463.07;;;24.37;41.02
52291;BME280;39663;45.432;28.050;2023-06-22T00:42:20;101461.89;;;24.36;41.10
52291;BME280;39663;45.432;28.050;2023-06-22T00:42:51;101461.29;;;24.39;41.01
52291;BME280;39663;45.432;28.050;2023-06-22T00:43:23;101461.43;;;24.43;41.01
52291;BME280;39663;45.432;28.050;2023-06-22T00:43:54;101461.12;;;24.41;41.02
52291;BME280;39663;45.432;28.050;2023-06-22T00:44:26;101460.59;;;24.43;41.01
52291;BME280;39663;45.432;28.050;2023-06-22T00:44:57;101459.16;;;24.50;41.02
52291;BME280;39663;45.432;28.050;2023-06-22T00:45:29;101461.55;;;24.62;41.08
52291;BME280;39663;45.432;28.050;2023-06-22T00:46:00;101461.86;;;24.43;41.17
52291;BME280;39663;45.432;28.050;2023-06-22T00:46:32;101463.16;;;24.36;41.21
52291;BME280;39663;45.432;28.050;2023-06-22T00:47:03;101461.53;;;24.27;41.24
52291;BME280;39663;45.432;28.050;2023-06-22T00:47:36;101461.12;;;24.28;41.28
52291;BME280;39663;45.432;28.050;2023-06-22T00:48:08;101461.03;;;24.22;41.24
52291;BME280;39663;45.432;28.050;2023-06-22T00:48:40;101459.91;;;24.30;41.23
52291;BME280;39663;45.432;28.050;2023-06-22T00:49:12;101461.30;;;24.32;41.22
52291;BME280;39663;45.432;28.050;2023-06-22T00:49:43;101463.02;;;24.35;41.18
52291;BME280;39663;45.432;28.050;2023-06-22T00:50:19;101464.43;;;24.39;41.16
52291;BME280;39663;45.432;28.050;2023-06-22T00:50:51;101464.26;;;24.28;41.30
52291;BME280;39663;45.432;28.050;2023-06-22T00:51:22;101465.22;;;24.38;41.19
52291;BME280;39663;45.432;28.050;2023-06-22T00:51:54;101466.24;;;24.41;41.11
52291;BME280;39663;45.432;28.050;2023-06-22T00:52:27;101465.89;;;24.20;41.11
52291;BME280;39663;45.432;28.050;2023-06-22T00:53:00;101465.11;;;24.36;41.17
52291;BME280;39663;45.432;28.050;2023-06-22T00:53:32;101466.55;;;24.32;41.24
52291;BME280;39663;45.432;28.050;2023-06-22T00:54:03;101467.98;;;24.19;41.44
52291;BME280;39663;45.432;28.050;2023-06-22T00:54:35;101467.50;;;24.19;41.48
52291;BME280;39663;45.432;28.050;2023-06-22T00:55:07;101467.14;;;24.17;41.57
52291;BME280;39663;45.432;28.050;2023-06-22T00:55:42;101466.30;;;24.23;41.39
52291;BME280;39663;45.432;28.050;2023-06-22T00:56:14;101468.63;;;24.20;41.44
52291;BME280;39663;45.432;28.050;2023-06-22T00:56:45;101466.72;;;24.23;41.30
52291;BME280;39663;45.432;28.050;2023-06-22T00:57:17;101467.14;;;24.15;41.41
52291;BME280;39663;45.432;28.050;2023-06-22T00:57:50;101466.83;;;24.00;41.55
52291;BME280;39663;45.432;28.050;2023-06-22T00:58:21;101469.22;;;24.01;41.68
52291;BME280;39663;45.432;28.050;2023-06-22T00:58:53;101466.27;;;23.88;41.84
52291;BME280;39663;45.432;28.050;2023-06-22T00:59:26;101465.82;;;24.04;41.52
52291;BME280;39663;45.432;28.050;2023-06-22T00:59:58;101463.51;;;23.95;41.79
52291;BME280;39663;45.432;28.050;2023-06-22T01:00:29;101465.18;;;24.06;41.53
52291;BME280;39663;45.432;28.050;2023-06-22T01:01:01;101465.52;;;24.21;41.72
52291;BME280;39663;45.432;28.050;2023-06-22T01:01:47;101465.56;;;24.07;41.58
52291;BME280;39663;45.432;28.050;2023-06-22T01:02:18;101461.05;;;24.05;41.61
52291;BME280;39663;45.432;28.050;2023-06-22T01:02:51;101462.07;;;24.02;41.70
52291;BME280;39663;45.432;28.050;2023-06-22T01:03:22;101461.96;;;24.05;41.67
52291;BME280;39663;45.432;28.050;2023-06-22T01:03:54;101461.54;;;23.87;41.93
52291;BME280;39663;45.432;28.050;2023-06-22T01:04:35;101458.61;;;23.89;41.94
52291;BME280;39663;45.432;28.050;2023-06-22T01:05:07;101458.93;;;23.93;41.91
52291;BME280;39663;45.432;28.050;2023-06-22T01:05:39;101456.79;;;23.93;41.92
52291;BME280;39663;45.432;28.050;2023-06-22T01:06:16;101458.41;;;23.95;41.94
52291;BME280;39663;45.432;28.050;2023-06-22T01:06:54;101456.58;;;23.95;41.91
52291;BME280;39663;45.432;28.050;2023-06-22T01:07:34;101456.88;;;24.03;41.91
52291;BME280;39663;45.432;28.050;2023-06-22T01:08:16;101455.96;;;24.00;42.07
52291;BME280;39663;45.432;28.050;2023-06-22T01:09:00;101452.49;;;23.88;42.22
52291;BME280;39663;45.432;28.050;2023-06-22T01:09:37;101451.08;;;23.95;41.98
52291;BME280;39663;45.432;28.050;2023-06-22T01:10:20;101450.61;;;24.01;41.99
52291;BME280;39663;45.432;28.050;2023-06-22T01:11:00;101450.60;;;24.02;41.95
52291;BME280;39663;45.432;28.050;2023-06-22T01:11:39;101451.16;;;23.97;42.04
52291;BME280;39663;45.432;28.050;2023-06-22T01:12:13;101453.36;;;24.33;42.04
52291;BME280;39663;45.432;28.050;2023-06-22T01:12:51;101453.51;;;24.06;41.98
52291;BME280;39663;45.432;28.050;2023-06-22T01:13:29;101454.04;;;24.26;42.02
52291;BME280;39663;45.432;28.050;2023-06-22T01:14:10;101453.48;;;23.97;42.03
52291;BME280;39663;45.432;28.050;2023-06-22T01:14:47;101454.93;;;24.10;42.23
52291;BME280;39663;45.432;28.050;2023-06-22T01:15:25;101457.31;;;23.92;42.10
52291;BME280;39663;45.432;28.050;2023-06-22T01:16:03;101457.51;;;23.92;42.12
52291;BME280;39663;45.432;28.050;2023-06-22T01:16:40;101458.92;;;23.96;42.04
52291;BME280;39663;45.432;28.050;2023-06-22T01:17:12;101459.63;;;24.06;42.03
52291;BME280;39663;45.432;28.050;2023-06-22T01:17:48;101459.89;;;24.23;41.90
52291;BME280;39663;45.432;28.050;2023-06-22T01:18:21;101461.12;;;24.16;41.89
52291;BME280;39663;45.432;28.050;2023-06-22T01:18:57;101462.12;;;23.99;41.97
52291;BME280;39663;45.432;28.050;2023-06-22T01:19:37;101461.17;;;24.00;41.99
52291;BME280;39663;45.432;28.050;2023-06-22T01:20:11;101463.00;;;24.05;41.91
52291;BME280;39663;45.432;28.050;2023-06-22T01:20:45;101462.52;;;24.08;41.98
52291;BME280;39663;45.432;28.050;2023-06-22T01:21:19;101463.39;;;24.02;42.03
52291;BME280;39663;45.432;28.050;2023-06-22T01:21:53;101461.87;;;24.06;41.92
52291;BME280;39663;45.432;28.050;2023-06-22T01:22:30;101464.18;;;24.17;41.83
52291;BME280;39663;45.432;28.050;2023-06-22T01:23:10;101463.43;;;23.98;42.10
52291;BME280;39663;45.432;28.050;2023-06-22T01:24:06;101462.06;;;24.01;42.01
52291;BME280;39663;45.432;28.050;2023-06-22T01:24:51;101461.90;;;23.94;42.06
52291;BME280;39663;45.432;28.050;2023-06-22T01:25:32;101464.07;;;23.88;42.16
52291;BME280;39663;45.432;28.050;2023-06-22T01:26:12;101464.99;;;23.89;42.07
52291;BME280;39663;45.432;28.050;2023-06-22T01:26:59;101464.10;;;23.90;42.17
52291;BME280;39663;45.432;28.050;2023-06-22T01:27:45;101466.86;;;23.95;42.19
52291;BME280;39663;45.432;28.050;2023-06-22T01:28:30;101463.66;;;24.11;41.82
52291;BME280;39663;45.432;28.050;2023-06-22T01:29:04;101465.30;;;23.85;41.87
52291;BME280;39663;45.432;28.050;2023-06-22T01:29:37;101463.51;;;23.87;41.80
52291;BME280;39663;45.432;28.050;2023-06-22T01:30:11;101467.62;;;23.84;41.85
52291;BME280;39663;45.432;28.050;2023-06-22T01:30:43;101465.57;;;24.10;41.92
52291;BME280;39663;45.432;28.050;2023-06-22T01:31:18;101465.21;;;23.87;41.94
52291;BME280;39663;45.432;28.050;2023-06-22T01:31:51;101466.28;;;23.97;41.62
52291;BME280;39663;45.432;28.050;2023-06-22T01:32:23;101463.25;;;23.97;41.69
52291;BME280;39663;45.432;28.050;2023-06-22T01:32:56;101465.64;;;24.00;41.42
52291;BME280;39663;45.432;28.050;2023-06-22T01:33:28;101464.44;;;24.09;41.31
52291;BME280;39663;45.432;28.050;2023-06-22T01:34:03;101464.12;;;24.03;41.30
52291;BME280;39663;45.432;28.050;2023-06-22T01:34:37;101467.65;;;23.79;41.75
52291;BME280;39663;45.432;28.050;2023-06-22T01:35:10;101467.66;;;23.72;41.87
52291;BME280;39663;45.432;28.050;2023-06-22T01:35:43;101465.28;;;23.80;41.53
52291;BME280;39663;45.432;28.050;2023-06-22T01:36:16;101467.07;;;23.68;41.72
52291;BME280;39663;45.432;28.050;2023-06-22T01:36:48;101467.33;;;23.63;41.76
52291;BME280;39663;45.432;28.050;2023-06-22T01:37:21;101468.50;;;23.56;41.89
52291;BME280;39663;45.432;28.050;2023-06-22T01:37:52;101467.97;;;23.59;41.64
52291;BME280;39663;45.432;28.050;2023-06-22T01:38:25;101468.67;;;23.58;41.64
52291;BME280;39663;45.432;28.050;2023-06-22T01:38:58;101470.63;;;23.48;42.26
52291;BME280;39663;45.432;28.050;2023-06-22T01:39:30;101469.90;;;23.87;42.33
52291;BME280;39663;45.432;28.050;2023-06-22T01:40:04;101468.00;;;23.52;42.24
52291;BME280;39663;45.432;28.050;2023-06-22T01:40:37;101469.41;;;23.80;42.20
52291;BME280;39663;45.432;28.050;2023-06-22T01:41:09;101469.99;;;23.89;41.76
52291;BME280;39663;45.432;28.050;2023-06-22T01:41:42;101468.67;;;23.84;41.79
52291;BME280;39663;45.432;28.050;2023-06-22T01:42:13;101468.04;;;23.86;41.93
52291;BME280;39663;45.432;28.050;2023-06-22T01:42:45;101467.70;;;23.66;41.74
52291;BME280;39663;45.432;28.050;2023-06-22T01:43:17;101467.59;;;23.74;41.53
52291;BME280;39663;45.432;28.050;2023-06-22T01:43:50;101467.23;;;23.74;41.21
52291;BME280;39663;45.432;28.050;2023-06-22T01:44:22;101466.51;;;23.72;41.20
52291;BME280;39663;45.432;28.050;2023-06-22T01:44:55;101468.31;;;23.63;41.81
52291;BME280;39663;45.432;28.050;2023-06-22T01:45:27;101467.72;;;23.56;41.71
52291;BME280;39663;45.432;28.050;2023-06-22T01:46:01;101467.44;;;23.54;41.91
52291;BME280;39663;45.432;28.050;2023-06-22T01:46:33;101468.58;;;23.65;41.33
52291;BME280;39663;45.432;28.050;2023-06-22T01:47:05;101468.33;;;23.89;41.77
52291;BME280;39663;45.432;28.050;2023-06-22T01:47:38;101468.11;;;23.37;41.80
52291;BME280;39663;45.432;28.050;2023-06-22T01:48:10;101465.96;;;23.58;41.94
52291;BME280;39663;45.432;28.050;2023-06-22T01:48:42;101466.59;;;23.39;41.93
52291;BME280;39663;45.432;28.050;2023-06-22T01:49:13;101466.54;;;23.66;42.03
52291;BME280;39663;45.432;28.050;2023-06-22T01:49:45;101469.29;;;23.50;41.95
52291;BME280;39663;45.432;28.050;2023-06-22T01:50:17;101468.80;;;23.93;42.02
52291;BME280;39663;45.432;28.050;2023-06-22T01:50:48;101466.45;;;23.84;41.48
52291;BME280;39663;45.432;28.050;2023-06-22T01:51:20;101467.24;;;23.75;41.87
52291;BME280;39663;45.432;28.050;2023-06-22T01:51:52;101469.98;;;23.52;41.85
52291;BME280;39663;45.432;28.050;2023-06-22T01:52:23;101470.45;;;23.71;41.89
52291;BME280;39663;45.432;28.050;2023-06-22T01:52:55;101469.96;;;23.56;41.78
52291;BME280;39663;45.432;28.050;2023-06-22T01:53:26;101471.07;;;23.55;41.85
52291;BME280;39663;45.432;28.050;2023-06-22T01:53:58;101472.02;;;24.00;41.81
52291;BME280;39663;45.432;28.050;2023-06-22T01:54:30;101473.43;;;23.86;41.34
52291;BME280;39663;45.432;28.050;2023-06-22T01:55:01;101475.05;;;23.81;41.72
52291;BME280;39663;45.432;28.050;2023-06-22T01:55:32;101475.40;;;23.87;41.57
52291;BME280;39663;45.432;28.050;2023-06-22T01:56:04;101474.92;;;23.95;41.41
52291;BME280;39663;45.432;28.050;2023-06-22T01:56:36;101476.19;;;23.92;41.33
52291;BME280;39663;45.432;28.050;2023-06-22T01:57:08;101475.06;;;23.87;41.68
52291;BME280;39663;45.432;28.050;2023-06-22T01:57:39;101475.51;;;23.60;41.62
52291;BME280;39663;45.432;28.050;2023-06-22T01:58:11;101474.54;;;23.91;41.49
52291;BME280;39663;45.432;28.050;2023-06-22T01:58:49;101474.25;;;23.73;41.17
52291;BME280;39663;45.432;28.050;2023-06-22T01:59:27;101474.54;;;23.68;41.36
52291;BME280;39663;45.432;28.050;2023-06-22T02:00:02;101475.50;;;23.76;41.41
52291;BME280;39663;45.432;28.050;2023-06-22T02:00:40;101474.65;;;23.78;41.51
52291;BME280;39663;45.432;28.050;2023-06-22T02:01:17;101475.74;;;23.83;41.49
52291;BME280;39663;45.432;28.050;2023-06-22T02:01:57;101475.28;;;23.71;41.62
52291;BME280;39663;45.432;28.050;2023-06-22T02:02:36;101476.02;;;23.86;41.78
52291;BME280;39663;45.432;28.050;2023-06-22T02:03:13;101473.35;;;23.72;41.64
52291;BME280;39663;45.432;28.050;2023-06-22T02:03:51;101474.85;;;23.73;41.61
52291;BME280;39663;45.432;28.050;2023-06-22T02:04:29;101472.74;;;23.45;41.89
52291;BME280;39663;45.432;28.050;2023-06-22T02:05:06;101473.02;;;23.53;41.62
52291;BME280;39663;45.432;28.050;2023-06-22T02:05:46;101474.05;;;23.72;41.98
52291;BME280;39663;45.432;28.050;2023-06-22T02:06:23;101473.10;;;23.77;41.70
52291;BME280;39663;45.432;28.050;2023-06-22T02:06:58;101473.38;;;23.36;41.92
52291;BME280;39663;45.432;28.050;2023-06-22T02:07:34;101474.49;;;23.45;42.23
52291;BME280;39663;45.432;28.050;2023-06-22T02:08:09;101474.20;;;23.48;41.91
52291;BME280;39663;45.432;28.050;2023-06-22T02:09:00;101475.52;;;23.64;42.00
52291;BME280;39663;45.432;28.050;2023-06-22T02:09:32;101476.67;;;23.64;42.00
52291;BME280;39663;45.432;28.050;2023-06-22T02:10:07;101478.51;;;23.41;42.01
52291;BME280;39663;45.432;28.050;2023-06-22T02:10:40;101476.59;;;23.65;42.00
52291;BME280;39663;45.432;28.050;2023-06-22T02:11:15;101478.93;;;23.43;41.97
52291;BME280;39663;45.432;28.050;2023-06-22T02:11:49;101478.49;;;23.57;42.15
52291;BME280;39663;45.432;28.050;2023-06-22T02:12:24;101480.36;;;23.52;42.25
52291;BME280;39663;45.432;28.050;2023-06-22T02:12:57;101479.60;;;23.02;42.36
52291;BME280;39663;45.432;28.050;2023-06-22T02:13:30;101479.14;;;23.35;42.66
52291;BME280;39663;45.432;28.050;2023-06-22T02:14:03;101480.70;;;23.11;42.79
52291;BME280;39663;45.432;28.050;2023-06-22T02:14:36;101481.22;;;23.17;42.43
52291;BME280;39663;45.432;28.050;2023-06-22T02:15:09;101480.11;;;23.47;42.44
52291;BME280;39663;45.432;28.050;2023-06-22T02:15:42;101480.90;;;23.24;42.56
52291;BME280;39663;45.432;28.050;2023-06-22T02:16:14;101480.54;;;23.15;42.47
52291;BME280;39663;45.432;28.050;2023-06-22T02:16:46;101479.14;;;23.53;42.16
52291;BME280;39663;45.432;28.050;2023-06-22T02:17:19;101479.22;;;23.67;42.19
52291;BME280;39663;45.432;28.050;2023-06-22T02:17:51;101480.37;;;23.54;42.19
52291;BME280;39663;45.432;28.050;2023-06-22T02:18:22;101479.06;;;23.74;41.97
52291;BME280;39663;45.432;28.050;2023-06-22T02:18:54;101479.66;;;23.60;41.92
52291;BME280;39663;45.432;28.050;2023-06-22T02:19:26;101481.42;;;23.89;41.93
52291;BME280;39663;45.432;28.050;2023-06-22T02:19:57;101480.38;;;23.95;41.67
52291;BME280;39663;45.432;28.050;2023-06-22T02:20:29;101481.99;;;23.92;41.67
52291;BME280;39663;45.432;28.050;2023-06-22T02:21:00;101480.73;;;23.57;41.97
52291;BME280;39663;45.432;28.050;2023-06-22T02:21:32;101481.10;;;23.49;42.06
52291;BME280;39663;45.432;28.050;2023-06-22T02:22:04;101479.36;;;23.36;42.31
52291;BME280;39663;45.432;28.050;2023-06-22T02:22:36;101480.93;;;23.45;42.22
52291;BME280;39663;45.432;28.050;2023-06-22T02:23:07;101481.60;;;23.47;42.30
52291;BME280;39663;45.432;28.050;2023-06-22T02:23:39;101480.17;;;23.47;42.32
52291;BME280;39663;45.432;28.050;2023-06-22T02:24:10;101481.00;;;23.57;41.97
52291;BME280;39663;45.432;28.050;2023-06-22T02:24:41;101480.09;;;23.47;42.11
52291;BME280;39663;45.432;28.050;2023-06-22T02:25:13;101480.03;;;23.76;41.98
52291;BME280;39663;45.432;28.050;2023-06-22T02:25:45;101479.59;;;23.61;41.83
52291;BME280;39663;45.432;28.050;2023-06-22T02:26:17;101479.79;;;23.32;42.12
52291;BME280;39663;45.432;28.050;2023-06-22T02:26:49;101481.53;;;23.51;42.21
52291;BME280;39663;45.432;28.050;2023-06-22T02:27:21;101481.96;;;23.56;42.31
52291;BME280;39663;45.432;28.050;2023-06-22T02:27:52;101482.72;;;23.20;42.16
52291;BME280;39663;45.432;28.050;2023-06-22T02:28:23;101481.40;;;23.65;42.16
52291;BME280;39663;45.432;28.050;2023-06-22T02:28:55;101482.86;;;23.58;42.12
52291;BME280;39663;45.432;28.050;2023-06-22T02:29:26;101483.64;;;23.40;42.16
52291;BME280;39663;45.432;28.050;2023-06-22T02:29:58;101483.56;;;23.36;42.23
52291;BME280;39663;45.432;28.050;2023-06-22T02:30:29;101482.87;;;23.14;42.35
52291;BME280;39663;45.432;28.050;2023-06-22T02:31:01;101486.38;;;23.48;42.51
52291;BME280;39663;45.432;28.050;2023-06-22T02:31:32;101489.59;;;23.54;42.38
52291;BME280;39663;45.432;28.050;2023-06-22T02:32:04;101488.95;;;23.17;42.37
52291;BME280;39663;45.432;28.050;2023-06-22T02:32:36;101489.90;;;23.50;42.37
52291;BME280;39663;45.432;28.050;2023-06-22T02:33:08;101491.03;;;23.39;42.17
52291;BME280;39663;45.432;28.050;2023-06-22T02:33:39;101494.25;;;23.17;42.33
52291;BME280;39663;45.432;28.050;2023-06-22T02:34:11;101490.93;;;23.19;42.52
52291;BME280;39663;45.432;28.050;2023-06-22T02:34:43;101492.26;;;23.20;42.52
52291;BME280;39663;45.432;28.050;2023-06-22T02:35:14;101494.79;;;23.27;42.53
52291;BME280;39663;45.432;28.050;2023-06-22T02:35:45;101493.03;;;23.49;42.31
52291;BME280;39663;45.432;28.050;2023-06-22T02:36:17;101495.72;;;23.26;42.45
52291;BME280;39663;45.432;28.050;2023-06-22T02:36:49;101495.32;;;23.17;42.55
52291;BME280;39663;45.432;28.050;2023-06-22T02:37:20;101494.07;;;23.29;42.78
52291;BME280;39663;45.432;28.050;2023-06-22T02:37:52;101494.80;;;23.21;42.91
52291;BME280;39663;45.432;28.050;2023-06-22T02:38:23;101495.93;;;23.02;42.67
52291;BME280;39663;45.432;28.050;2023-06-22T02:38:55;101492.19;;;23.31;42.49
52291;BME280;39663;45.432;28.050;2023-06-22T02:39:27;101494.16;;;23.52;42.75
52291;BME280;39663;45.432;28.050;2023-06-22T02:39:58;101493.56;;;23.33;42.54
52291;BME280;39663;45.432;28.050;2023-06-22T02:40:30;101493.77;;;23.21;42.48
52291;BME280;39663;45.432;28.050;2023-06-22T02:41:01;101493.31;;;23.54;42.73
52291;BME280;39663;45.432;28.050;2023-06-22T02:41:33;101494.72;;;23.40;42.64
52291;BME280;39663;45.432;28.050;2023-06-22T02:42:05;101497.04;;;23.25;42.63
52291;BME280;39663;45.432;28.050;2023-06-22T02:42:37;101496.32;;;23.47;42.53
52291;BME280;39663;45.432;28.050;2023-06-22T02:43:08;101496.94;;;23.54;42.42
52291;BME280;39663;45.432;28.050;2023-06-22T02:43:39;101497.49;;;23.62;42.09
52291;BME280;39663;45.432;28.050;2023-06-22T02:44:11;101496.21;;;23.63;41.93
52291;BME280;39663;45.432;28.050;2023-06-22T02:44:42;101498.02;;;23.37;42.03
52291;BME280;39663;45.432;28.050;2023-06-22T02:45:14;101498.78;;;23.44;42.28
52291;BME280;39663;45.432;28.050;2023-06-22T02:45:45;101498.45;;;23.30;42.41
52291;BME280;39663;45.432;28.050;2023-06-22T02:46:17;101497.36;;;23.21;42.23
52291;BME280;39663;45.432;28.050;2023-06-22T02:46:49;101497.15;;;23.61;42.30
52291;BME280;39663;45.432;28.050;2023-06-22T02:47:20;101497.85;;;23.26;42.25
52291;BME280;39663;45.432;28.050;2023-06-22T02:47:51;101497.97;;;23.39;42.26
52291;BME280;39663;45.432;28.050;2023-06-22T02:48:23;101497.14;;;23.19;42.31
52291;BME280;39663;45.432;28.050;2023-06-22T02:48:54;101499.48;;;23.05;42.41
52291;BME280;39663;45.432;28.050;2023-06-22T02:49:25;101499.44;;;23.48;42.40
52291;BME280;39663;45.432;28.050;2023-06-22T02:49:57;101500.26;;;23.44;42.32
52291;BME280;39663;45.432;28.050;2023-06-22T02:50:28;101502.24;;;23.41;42.30
52291;BME280;39663;45.432;28.050;2023-06-22T02:51:00;101500.06;;;23.33;41.98
52291;BME280;39663;45.432;28.050;2023-06-22T02:52:02;101501.07;;;23.49;42.13
52291;BME280;39663;45.432;28.050;2023-06-22T02:52:34;101499.41;;;23.49;42.33
52291;BME280;39663;45.432;28.050;2023-06-22T02:53:05;101500.14;;;23.61;41.74
52291;BME280;39663;45.432;28.050;2023-06-22T02:53:37;101501.36;;;23.48;41.87
52291;BME280;39663;45.432;28.050;2023-06-22T02:54:08;101500.17;;;23.25;41.94
52291;BME280;39663;45.432;28.050;2023-06-22T02:54:40;101499.80;;;23.37;41.99
52291;BME280;39663;45.432;28.050;2023-06-22T02:55:11;101499.98;;;23.30;42.44
52291;BME280;39663;45.432;28.050;2023-06-22T02:55:42;101500.13;;;23.21;42.23
52291;BME280;39663;45.432;28.050;2023-06-22T02:56:14;101499.17;;;23.18;42.12
52291;BME280;39663;45.432;28.050;2023-06-22T02:56:45;101499.16;;;23.41;41.88
52291;BME280;39663;45.432;28.050;2023-06-22T02:57:17;101498.63;;;23.41;41.94
52291;BME280;39663;45.432;28.050;2023-06-22T02:57:48;101499.93;;;23.08;42.03
52291;BME280;39663;45.432;28.050;2023-06-22T02:58:20;101499.58;;;23.37;42.00
52291;BME280;39663;45.432;28.050;2023-06-22T02:58:51;101501.75;;;23.12;42.13